Etusivu
METAR-TAF:

METAR-TAF

Lentoasemat :

Öljynporauslautta

Norne Fpso, Norja

Leveyspiiri: 66-01-48N, Pituuspiiri: 008-04-48E, korkeus merenpinnasta: 10 m

Tämänhetkinen sää

Tämä raportti tehtiin 26 minuuttia sitten, kello 19.20 UTC
Tuuli 7 kn koillisesta, vaihdellen pohjoisen/koillisen ja idän/kaakon välillä
Lämpötila 5°C
Kosteus 75%
Ilmanpaine 1031 hPa
Näkyvyys 10 km tai enemmän

METAR: ENNE 211920Z AUTO 05007KT 030V110 9999NDV BKN017/// 05/01 Q1031 W///S4

Aika: 20:46 (19:46 UTC)

Sääennuste

Tämä raportti tehtiin 5 tuntia ja 46 minuuttia sitten, kello 14.00 UTC
Ennuste voimassa 21. päivästä klo 15 UTC - 21. päivään klo 18 UTC
Tuuli 15 kn idästä/koillisesta
Näkyvyys 10 km tai enemmän
Hajanaisia pilviä 2000 ft:n korkeudessa
Todennäköisyys 30% :
Ajoittain
21. päivästä klo 15 UTC - 21. päivään klo 18 UTC
Hajonneita pilviä 1400 ft:n korkeudessa

TAF: ENNE 211400Z 2115/2118 06015KT 9999 SCT020 PROB30 TEMPO 2115/2118 BKN014

Säähavainnot ja -ennusteet yli 4000 lentoasemalta (METAR- ja TAF-raportit).

Käytössä olevat sääasemat on merkitty karttaan keltaisilla ja punaisilla pisteillä.

Aseta hiiri pisteen päälle nähdäksesi sääaseman nimen.

Klikkaa sitten nähdäksesi säähavainnot ja -ennusteet.

Kartan vaihtaminen: klikkaa mustalla rastilla varustettuja vihreitä pisteitä, niin voit zoomata sisään; viivalla varustettua vihreää pistettä, niin voit zoomata ulos tai vihreitä nuolia, niin pääset viereisille kartoille.


METAR-TAF: